createdAt,value
2024-04-12T00:01:46.657Z,19.33
2024-04-12T00:04:18.782Z,19.20
2024-04-12T00:07:01.313Z,18.35
2024-04-12T00:09:30.891Z,18.95
2024-04-12T00:12:02.132Z,18.38
2024-04-12T00:14:29.981Z,18.27
2024-04-12T00:16:59.221Z,18.77
2024-04-12T00:19:27.357Z,18.85
2024-04-12T00:22:00.999Z,18.65
2024-04-12T00:24:31.196Z,18.77
2024-04-12T00:27:00.571Z,18.42
2024-04-12T00:29:40.513Z,17.98
2024-04-12T00:32:17.905Z,17.48
2024-04-12T00:34:49.788Z,18.50
2024-04-12T00:37:18.971Z,19.38
2024-04-12T00:39:52.092Z,19.77
2024-04-12T00:42:34.349Z,20.40
2024-04-12T00:45:04.944Z,19.13
2024-04-12T00:47:36.076Z,19.80
2024-04-12T00:50:06.272Z,20.33
2024-04-12T00:52:37.013Z,19.77
2024-04-12T00:55:10.097Z,20.73
2024-04-12T00:57:41.978Z,19.98
2024-04-12T01:00:11.825Z,20.80
2024-04-12T01:02:44.849Z,20.17
2024-04-12T01:05:21.174Z,21.70
2024-04-12T01:07:57.676Z,21.65
2024-04-12T01:10:28.022Z,19.63
2024-04-12T01:12:58.524Z,19.77
2024-04-12T01:15:34.009Z,22.13
2024-04-12T01:18:06.643Z,21.05
2024-04-12T01:20:36.849Z,21.35
2024-04-12T01:23:06.546Z,21.13
2024-04-12T01:25:35.834Z,20.67
2024-04-12T01:28:05.046Z,22.30
2024-04-12T01:30:32.866Z,22.13
2024-04-12T01:33:00.983Z,21.88
2024-04-12T01:35:28.572Z,22.52
2024-04-12T01:37:59.137Z,22.02
2024-04-12T01:40:27.427Z,23.10
2024-04-12T01:42:55.220Z,23.27
2024-04-12T01:45:29.096Z,23.02
2024-04-12T01:47:57.625Z,22.73
2024-04-12T01:50:25.741Z,22.45
2024-04-12T01:52:57.071Z,22.88
2024-04-12T01:55:26.593Z,22.80
2024-04-12T01:58:02.392Z,23.60
2024-04-12T02:00:29.937Z,23.23
2024-04-12T02:03:01.260Z,25.17
2024-04-12T02:05:30.990Z,24.95
2024-04-12T02:08:00.569Z,24.45
2024-04-12T02:10:28.305Z,24.95
2024-04-12T02:12:55.770Z,25.65
2024-04-12T02:15:29.080Z,25.33
2024-04-12T02:17:59.788Z,26.60
2024-04-12T02:20:35.266Z,26.65
2024-04-12T02:23:07.151Z,25.33
2024-04-12T02:25:36.855Z,26.33
2024-04-12T02:28:09.832Z,26.10
2024-04-12T02:30:55.319Z,24.88
2024-04-12T02:33:32.031Z,25.42
2024-04-12T02:36:13.471Z,25.23
2024-04-12T02:38:42.765Z,24.98
2024-04-12T02:41:15.510Z,25.73
2024-04-12T02:43:46.292Z,24.65
2024-04-12T02:46:13.929Z,25.33
2024-04-12T02:48:45.008Z,25.90
2024-04-12T02:51:19.085Z,25.85
2024-04-12T02:53:49.823Z,25.52
2024-04-12T02:56:19.079Z,25.63
2024-04-12T02:58:48.261Z,25.00
2024-04-12T03:01:28.162Z,26.75
2024-04-12T03:03:58.248Z,25.63
2024-04-12T03:06:34.138Z,25.52
2024-04-12T03:09:03.197Z,24.88
2024-04-12T03:11:36.538Z,24.67
2024-04-12T03:14:11.956Z,25.48
2024-04-12T03:16:44.863Z,25.73
2024-04-12T03:19:15.454Z,24.77
2024-04-12T03:21:43.321Z,24.70
2024-04-12T03:24:11.928Z,26.48
2024-04-12T03:26:39.746Z,25.83
2024-04-12T03:29:07.593Z,26.08
2024-04-12T03:31:40.796Z,26.80
2024-04-12T03:34:09.523Z,25.60
2024-04-12T03:36:38.694Z,24.88
2024-04-12T03:39:21.216Z,25.25
2024-04-12T03:41:52.319Z,24.33
2024-04-12T03:44:20.477Z,23.80
2024-04-12T03:46:51.775Z,24.05
2024-04-12T03:49:23.956Z,24.88
2024-04-12T03:51:55.715Z,24.48
2024-04-12T03:54:24.837Z,24.33
2024-04-12T03:56:53.494Z,24.45
2024-04-12T03:59:22.631Z,24.40
2024-04-12T04:01:50.194Z,23.80
2024-04-12T04:04:18.960Z,25.95
2024-04-12T04:06:47.302Z,26.08
2024-04-12T04:09:15.182Z,26.42
2024-04-12T04:11:45.372Z,26.67
2024-04-12T04:14:14.874Z,27.20
2024-04-12T04:16:42.534Z,27.70
2024-04-12T04:19:13.919Z,27.67
2024-04-12T04:21:42.686Z,28.05
2024-04-12T04:24:10.359Z,28.27
2024-04-12T04:26:38.212Z,27.90
2024-04-12T04:29:13.135Z,28.15
2024-04-12T04:31:51.417Z,28.77
2024-04-12T04:34:20.790Z,27.35
2024-04-12T04:36:50.614Z,26.48
2024-04-12T04:39:19.093Z,26.15
2024-04-12T04:41:48.049Z,25.52
2024-04-12T04:44:19.117Z,24.35
2024-04-12T04:46:51.520Z,23.90
2024-04-12T04:49:21.129Z,23.27
2024-04-12T04:51:50.244Z,22.17
2024-04-12T04:54:19.814Z,20.25
2024-04-12T04:56:48.678Z,20.15
2024-04-12T04:59:29.838Z,19.92
2024-04-12T05:01:57.933Z,19.55
2024-04-12T05:04:26.729Z,20.13
2024-04-12T05:06:54.820Z,19.20
2024-04-12T05:09:23.941Z,18.90
2024-04-12T05:11:51.506Z,18.70
2024-04-12T05:14:38.271Z,18.70
2024-04-12T05:17:16.477Z,19.17
2024-04-12T05:19:45.172Z,18.25
2024-04-12T05:22:14.023Z,17.42
2024-04-12T05:24:43.038Z,17.65
2024-04-12T05:27:13.185Z,18.23
2024-04-12T05:29:42.386Z,18.05
2024-04-12T05:32:11.608Z,19.17
2024-04-12T08:44:22.378Z,12.52
2024-04-12T08:46:51.395Z,11.05
2024-04-12T09:07:07.624Z,6.93
2024-04-12T09:09:36.212Z,6.70
2024-04-12T09:12:04.021Z,6.60
2024-04-12T09:14:34.773Z,6.35
2024-04-12T09:17:07.704Z,5.90
2024-04-12T09:19:40.148Z,6.03
2024-04-12T09:22:11.373Z,5.45
2024-04-12T09:24:41.265Z,5.60
2024-04-12T09:27:12.033Z,5.13
2024-04-12T09:29:45.899Z,5.10
2024-04-12T09:32:32.381Z,4.97
2024-04-12T09:35:03.927Z,4.70
2024-04-12T09:37:45.304Z,4.93
2024-04-12T09:40:13.874Z,5.10
2024-04-12T09:42:57.129Z,4.80
2024-04-12T09:45:47.503Z,4.97
2024-04-12T09:48:38.402Z,4.80
2024-04-12T09:51:25.647Z,4.47
2024-04-12T09:54:12.268Z,5.18
2024-04-12T09:56:59.464Z,5.15
2024-04-12T09:59:49.536Z,4.90
2024-04-12T10:02:40.550Z,5.13
2024-04-12T10:05:28.845Z,5.13
2024-04-12T10:08:21.225Z,6.40
2024-04-12T10:11:09.160Z,6.30
2024-04-12T10:13:58.141Z,5.57
2024-04-12T10:16:44.232Z,5.95
2024-04-12T10:19:31.845Z,6.57
2024-04-12T10:22:32.698Z,6.90
2024-04-12T10:25:23.259Z,6.15
2024-04-12T10:28:11.400Z,6.85
2024-04-12T10:31:05.976Z,6.90
2024-04-12T10:34:03.299Z,6.43
2024-04-12T10:37:03.345Z,6.45
2024-04-12T10:39:35.179Z,6.35
2024-04-12T10:42:06.660Z,6.72
2024-04-12T10:44:34.172Z,6.05
2024-04-12T10:47:01.608Z,7.35
2024-04-12T10:49:29.245Z,7.22
2024-04-12T10:51:57.397Z,7.03
2024-04-12T10:54:25.588Z,7.40
2024-04-12T10:56:57.760Z,7.20
2024-04-12T10:59:31.789Z,7.00
2024-04-12T11:02:01.497Z,7.13
2024-04-12T11:04:52.678Z,6.60
2024-04-12T11:07:23.256Z,6.60
2024-04-12T11:10:04.831Z,6.80
2024-04-12T11:12:41.613Z,7.88
2024-04-12T11:15:21.890Z,7.85
2024-04-12T11:18:15.722Z,7.65
2024-04-12T11:21:10.298Z,7.43
2024-04-12T11:23:58.245Z,7.13
2024-04-12T11:26:44.707Z,8.25
2024-04-12T11:29:38.583Z,7.15
2024-04-12T11:32:13.527Z,8.45
2024-04-12T11:34:46.673Z,8.05
2024-04-12T11:37:16.835Z,8.00
2024-04-12T11:39:46.738Z,8.82
2024-04-12T11:42:20.275Z,9.13
2024-04-12T11:44:55.080Z,8.20
2024-04-12T11:47:25.105Z,8.82
2024-04-12T11:49:59.324Z,8.82
2024-04-12T11:52:27.519Z,8.60
2024-04-12T11:54:56.971Z,9.35
2024-04-12T11:57:34.155Z,9.15
2024-04-12T12:00:10.196Z,9.43
2024-04-12T12:02:45.252Z,9.10
2024-04-12T12:05:19.363Z,10.23
2024-04-12T12:07:48.003Z,9.30
2024-04-12T12:10:16.536Z,9.10
2024-04-12T12:12:45.114Z,9.65
2024-04-12T12:15:16.127Z,8.98
2024-04-12T12:17:43.958Z,9.20
2024-04-12T12:20:11.556Z,9.73
2024-04-12T12:22:39.860Z,9.65
2024-04-12T12:25:09.364Z,9.60
2024-04-12T12:27:37.220Z,10.13
2024-04-12T12:30:15.145Z,10.07
2024-04-12T12:32:46.309Z,9.73
2024-04-12T12:35:20.301Z,10.25
2024-04-12T12:37:49.747Z,10.50
2024-04-12T12:40:23.949Z,11.27
2024-04-12T12:42:56.677Z,11.00
2024-04-12T12:45:25.987Z,11.10
2024-04-12T12:47:54.868Z,11.15
2024-04-12T12:50:24.630Z,10.80
2024-04-12T12:52:53.018Z,11.48
2024-04-12T12:55:24.934Z,12.23
2024-04-12T12:58:13.003Z,12.75
2024-04-12T13:00:44.104Z,12.88
2024-04-12T13:03:13.715Z,12.80
2024-04-12T13:05:41.892Z,13.13
2024-04-12T13:08:09.503Z,13.30
2024-04-12T13:10:39.372Z,13.73
2024-04-12T13:13:07.234Z,14.15
2024-04-12T13:15:35.062Z,15.07
2024-04-12T13:18:03.329Z,15.70
2024-04-12T13:20:37.473Z,14.50
2024-04-12T13:23:05.182Z,14.95
2024-04-12T13:25:32.775Z,15.57
2024-04-12T13:28:05.279Z,15.57
2024-04-12T13:30:36.822Z,16.30
2024-04-12T13:33:04.594Z,15.77
2024-04-12T13:35:32.976Z,16.42
2024-04-12T13:38:01.152Z,16.98
2024-04-12T13:40:28.692Z,16.55
2024-04-12T13:42:56.178Z,16.70
2024-04-12T13:45:41.992Z,16.75
2024-04-12T13:48:28.619Z,17.33
2024-04-12T13:50:56.798Z,16.73
2024-04-12T13:53:33.908Z,17.17
2024-04-12T13:56:22.455Z,17.20
2024-04-12T13:58:53.561Z,17.48
2024-04-12T14:01:24.135Z,18.10
2024-04-12T14:03:55.822Z,17.55
2024-04-12T14:06:26.259Z,17.77
2024-04-12T14:08:56.221Z,18.15
2024-04-12T14:11:25.207Z,18.15
2024-04-12T14:13:52.720Z,18.25
2024-04-12T14:16:20.942Z,17.55
2024-04-12T14:18:49.640Z,17.88
2024-04-12T14:21:18.702Z,19.25
2024-04-12T14:23:47.344Z,18.25
2024-04-12T14:26:15.488Z,18.38
2024-04-12T14:28:43.781Z,18.35
2024-04-12T14:31:11.986Z,19.52
2024-04-12T14:33:40.082Z,18.40
2024-04-12T14:36:08.176Z,18.77
2024-04-12T14:38:41.575Z,19.00
2024-04-12T14:41:09.384Z,18.38
2024-04-12T14:43:36.902Z,18.48
2024-04-12T14:46:07.695Z,18.85
2024-04-12T14:48:38.472Z,18.40
2024-04-12T14:51:07.366Z,19.17
2024-04-12T14:53:35.013Z,18.80
2024-04-12T14:56:02.536Z,18.00
2024-04-12T14:58:30.000Z,18.63
2024-04-12T15:00:57.544Z,19.02
2024-04-12T15:03:43.779Z,19.05
2024-04-12T15:06:29.826Z,18.77
2024-04-12T15:09:20.097Z,18.92
2024-04-12T15:12:06.369Z,19.35
2024-04-12T15:14:52.672Z,18.80
2024-04-12T15:17:38.887Z,18.45
2024-04-12T15:20:25.725Z,18.95
2024-04-12T15:23:11.751Z,18.42
2024-04-12T15:25:58.163Z,18.90
2024-04-12T15:28:44.504Z,18.92
2024-04-12T15:31:31.052Z,17.75
2024-04-12T15:34:18.681Z,18.75
2024-04-12T15:41:53.262Z,18.20
2024-04-12T15:44:39.313Z,18.38
2024-04-12T15:47:06.844Z,18.58
2024-04-12T15:49:43.491Z,19.00
2024-04-12T15:52:14.420Z,18.65
2024-04-12T15:54:53.323Z,19.13
2024-04-12T15:57:40.539Z,18.52
2024-04-12T16:00:27.490Z,19.48
2024-04-12T16:03:14.750Z,19.35
2024-04-12T16:06:01.802Z,19.30
2024-04-12T16:08:49.023Z,19.52
2024-04-12T16:11:16.912Z,19.17
2024-04-12T16:13:45.004Z,19.90
2024-04-12T16:16:12.716Z,19.13
2024-04-12T16:18:40.315Z,18.70
2024-04-12T16:21:08.035Z,18.73
2024-04-12T16:23:36.507Z,18.92
2024-04-12T16:26:05.296Z,19.58
2024-04-12T16:28:34.960Z,20.17
2024-04-12T16:31:05.719Z,20.17
2024-04-12T16:33:34.875Z,19.63
2024-04-12T16:36:02.935Z,19.63
2024-04-12T16:38:30.493Z,18.48
2024-04-12T16:40:57.959Z,19.17
2024-04-12T16:43:25.423Z,18.98
2024-04-12T16:45:52.907Z,18.30
2024-04-12T16:48:20.449Z,18.33
2024-04-12T16:50:48.181Z,18.65
2024-04-12T16:53:15.857Z,18.10
2024-04-12T16:55:43.347Z,17.98
2024-04-12T16:58:11.038Z,17.80
2024-04-12T17:00:40.718Z,17.92
2024-04-12T17:03:10.304Z,17.83
2024-04-12T17:05:38.161Z,16.67
2024-04-12T17:08:05.935Z,16.95
2024-04-12T17:10:33.964Z,16.95
2024-04-12T17:13:01.474Z,17.15
2024-04-12T17:15:29.395Z,16.85
2024-04-12T17:17:57.233Z,16.92
2024-04-12T17:20:24.872Z,16.70
2024-04-12T17:22:52.353Z,16.10
2024-04-12T17:25:20.477Z,15.77
2024-04-12T17:27:53.108Z,16.50
2024-04-12T17:30:21.105Z,15.63
2024-04-12T17:32:48.816Z,15.73
2024-04-12T17:35:19.223Z,15.60
2024-04-12T17:37:46.800Z,16.35
2024-04-12T17:40:16.206Z,15.90
2024-04-12T17:42:43.805Z,16.05
2024-04-12T17:45:11.521Z,15.18
2024-04-12T17:47:39.104Z,15.15
2024-04-12T17:50:12.206Z,14.30
2024-04-12T17:52:41.273Z,15.60
2024-04-12T17:55:10.298Z,14.90
2024-04-12T17:57:37.882Z,17.95
2024-04-12T18:00:09.302Z,15.40
2024-04-12T18:02:37.074Z,15.35
2024-04-12T18:05:04.838Z,15.98
2024-04-12T18:07:32.469Z,15.60
2024-04-12T18:10:00.627Z,15.25
2024-04-12T18:12:28.164Z,14.55
2024-04-12T18:14:55.716Z,16.02
2024-04-12T18:17:23.222Z,15.25
2024-04-12T18:19:50.680Z,14.35
2024-04-12T18:22:18.102Z,15.85
2024-04-12T18:24:47.563Z,15.50
2024-04-12T18:27:17.665Z,13.90
2024-04-12T18:29:48.667Z,14.48
2024-04-12T18:32:16.163Z,15.15
2024-04-12T18:34:46.134Z,15.27
2024-04-12T18:37:33.836Z,15.15
2024-04-12T18:40:20.111Z,14.93
2024-04-12T18:43:06.503Z,14.13
2024-04-12T18:45:34.147Z,14.38
2024-04-12T18:48:02.258Z,14.20
2024-04-12T18:50:29.840Z,14.90
2024-04-12T18:52:57.301Z,14.45
2024-04-12T18:55:26.108Z,13.93
2024-04-12T18:57:53.659Z,13.52
2024-04-12T19:00:21.719Z,14.07
2024-04-12T19:02:49.586Z,14.85
2024-04-12T19:05:17.276Z,14.35
2024-04-12T19:07:44.943Z,15.45
2024-04-12T19:10:12.629Z,14.52
2024-04-12T19:12:40.759Z,14.90
2024-04-12T19:15:13.382Z,15.75
2024-04-12T19:17:40.926Z,13.65
2024-04-12T19:20:08.843Z,13.45
2024-04-12T19:22:36.318Z,12.07
2024-04-12T19:25:05.403Z,12.20
2024-04-12T19:27:34.828Z,12.43
2024-04-12T19:30:02.434Z,11.93
2024-04-12T19:32:30.072Z,11.95
2024-04-12T19:34:57.566Z,12.38
2024-04-12T19:37:25.046Z,12.18
2024-04-12T19:39:53.398Z,11.52
2024-04-12T19:42:20.908Z,12.18
2024-04-12T19:44:48.377Z,11.48
2024-04-12T19:47:15.827Z,10.70
2024-04-12T19:49:44.046Z,11.10
2024-04-12T19:52:11.660Z,11.07
2024-04-12T19:54:39.159Z,11.60
2024-04-12T19:57:07.184Z,11.68
2024-04-12T19:59:34.959Z,11.25
2024-04-12T20:02:02.475Z,10.85
2024-04-12T20:04:32.170Z,10.40
2024-04-12T20:06:59.650Z,10.23
2024-04-12T20:09:28.391Z,10.15
2024-04-12T20:11:56.048Z,10.00
2024-04-12T20:14:25.037Z,10.57
2024-04-12T20:16:52.869Z,9.90
2024-04-12T20:19:20.813Z,10.13
2024-04-12T20:21:48.916Z,11.07
2024-04-12T20:24:16.449Z,9.55
2024-04-12T20:26:47.396Z,9.57
2024-04-12T20:29:18.043Z,9.55
2024-04-12T20:31:56.724Z,9.68
2024-04-12T20:34:42.922Z,9.68
2024-04-12T20:37:10.422Z,10.02
2024-04-12T20:39:39.503Z,9.80
2024-04-12T20:42:07.222Z,9.55
2024-04-12T20:44:34.699Z,9.48
2024-04-12T20:47:02.301Z,9.52
2024-04-12T20:49:30.139Z,9.02
2024-04-12T20:51:57.752Z,9.38
2024-04-12T20:54:25.266Z,9.38
2024-04-12T20:56:52.781Z,9.68
2024-04-12T20:59:20.614Z,9.07
2024-04-12T21:01:51.904Z,9.93
2024-04-12T21:04:21.103Z,10.20
2024-04-12T21:06:49.989Z,9.77
2024-04-12T21:09:18.296Z,11.45
2024-04-12T21:11:46.730Z,9.75
2024-04-12T21:14:14.968Z,10.23
2024-04-12T21:16:44.539Z,10.18
2024-04-12T21:19:13.386Z,11.13
2024-04-12T21:21:41.089Z,10.40
2024-04-12T21:24:10.880Z,11.13
2024-04-12T21:26:38.519Z,10.23
2024-04-12T21:29:06.050Z,10.68
2024-04-12T21:31:33.574Z,9.63
2024-04-12T21:34:01.261Z,9.35
2024-04-12T21:36:28.874Z,9.38
2024-04-12T21:38:59.367Z,9.02
2024-04-12T21:41:27.238Z,8.95
2024-04-12T21:43:55.897Z,9.52
2024-04-12T21:46:25.291Z,9.32
2024-04-12T21:48:54.989Z,9.15
2024-04-12T21:51:32.077Z,9.18
2024-04-12T21:54:01.573Z,8.63
2024-04-12T21:56:29.280Z,8.48
2024-04-12T21:58:56.759Z,8.52
2024-04-12T22:01:24.350Z,8.75
2024-04-12T22:03:52.721Z,8.27
2024-04-12T22:06:20.299Z,8.57
2024-04-12T22:08:49.350Z,7.93
2024-04-12T22:11:16.779Z,8.00
2024-04-12T22:13:45.018Z,8.32
2024-04-12T22:16:13.919Z,8.70
2024-04-12T22:18:42.365Z,8.38
2024-04-12T22:21:15.693Z,8.05
2024-04-12T22:23:46.355Z,7.75
2024-04-12T22:26:16.598Z,7.72
2024-04-12T22:28:46.450Z,7.65
2024-04-12T22:31:18.808Z,7.72
2024-04-12T22:33:53.679Z,7.65
2024-04-12T22:36:22.886Z,7.20
2024-04-12T22:38:51.621Z,8.20
2024-04-12T22:41:20.445Z,8.02
2024-04-12T22:43:48.895Z,7.82
2024-04-12T22:46:16.649Z,7.68
2024-04-12T22:48:46.487Z,7.45
2024-04-12T22:51:25.502Z,7.38
2024-04-12T22:53:53.843Z,7.65
2024-04-12T22:56:26.159Z,7.72
2024-04-12T22:58:57.264Z,8.30
2024-04-12T23:01:28.479Z,7.93
2024-04-12T23:03:57.543Z,7.78
2024-04-12T23:06:25.407Z,8.38
2024-04-12T23:08:53.072Z,7.97
2024-04-12T23:11:20.547Z,8.27
2024-04-12T23:13:48.040Z,8.43
2024-04-12T23:16:15.731Z,8.10
2024-04-12T23:18:43.387Z,7.65
2024-04-12T23:21:11.189Z,9.20
2024-04-12T23:23:38.671Z,7.95
2024-04-12T23:26:07.418Z,8.90
2024-04-12T23:28:34.948Z,7.90
2024-04-12T23:31:02.503Z,8.88
2024-04-12T23:33:31.213Z,8.02
2024-04-12T23:35:59.775Z,7.95
2024-04-12T23:38:27.324Z,8.38
2024-04-12T23:40:54.831Z,8.15
2024-04-12T23:43:24.664Z,7.95
2024-04-12T23:45:52.490Z,8.70
2024-04-12T23:48:20.107Z,7.30
2024-04-12T23:50:47.631Z,6.70
2024-04-12T23:53:15.342Z,7.47
2024-04-12T23:55:42.781Z,7.32
2024-04-12T23:58:10.235Z,7.03
